createdAt,value
2023-03-31T00:00:39.573Z,1.50
2023-03-31T00:01:43.368Z,1.25
2023-03-31T00:02:47.322Z,3.00
2023-03-31T00:03:51.381Z,2.50
2023-03-31T00:04:55.285Z,1.50
2023-03-31T00:05:59.420Z,2.00
2023-03-31T00:07:03.448Z,2.00
2023-03-31T00:08:07.484Z,1.00
2023-03-31T00:09:11.818Z,1.50
2023-03-31T00:10:17.965Z,3.00
2023-03-31T00:11:20.806Z,3.00
2023-03-31T00:12:25.003Z,1.25
2023-03-31T00:13:29.036Z,1.50
2023-03-31T00:14:33.405Z,1.75
2023-03-31T00:15:37.610Z,2.00
2023-03-31T00:16:41.643Z,2.50
2023-03-31T00:17:45.389Z,2.50
2023-03-31T00:18:49.247Z,1.50
2023-03-31T00:19:52.850Z,1.50
2023-03-31T00:20:56.504Z,2.00
2023-03-31T00:22:00.112Z,1.25
2023-03-31T00:23:11.501Z,0.00
2023-03-31T00:24:15.151Z,2.25
2023-03-31T00:25:18.856Z,2.00
2023-03-31T00:26:22.756Z,1.00
2023-03-31T00:27:26.742Z,1.00
2023-03-31T00:28:30.789Z,1.00
2023-03-31T00:29:34.742Z,2.25
2023-03-31T00:30:38.540Z,2.00
2023-03-31T00:31:42.550Z,2.00
2023-03-31T00:32:46.392Z,2.00
2023-03-31T00:33:50.136Z,1.50
2023-03-31T00:34:54.028Z,1.50
2023-03-31T00:35:57.884Z,1.50
2023-03-31T00:37:01.722Z,2.00
2023-03-31T00:38:06.749Z,2.00
2023-03-31T00:39:10.954Z,1.00
2023-03-31T00:40:14.955Z,1.25
2023-03-31T00:41:19.165Z,1.00
2023-03-31T00:42:23.368Z,1.25
2023-03-31T00:43:27.577Z,1.50
2023-03-31T00:44:31.683Z,1.00
2023-03-31T00:45:35.410Z,1.50
2023-03-31T00:46:39.370Z,1.25
2023-03-31T00:47:43.286Z,1.00
2023-03-31T00:48:47.300Z,1.00
2023-03-31T00:49:51.274Z,1.00
2023-03-31T00:50:54.997Z,1.00
2023-03-31T00:51:58.780Z,0.75
2023-03-31T00:53:02.562Z,1.00
2023-03-31T00:54:06.356Z,1.00
2023-03-31T00:55:10.250Z,0.25
2023-03-31T00:56:14.254Z,0.50
2023-03-31T00:57:18.293Z,1.00
2023-03-31T00:58:22.261Z,0.50
2023-03-31T00:59:26.458Z,1.00
2023-03-31T01:00:30.567Z,1.00
2023-03-31T01:01:34.881Z,0.50
2023-03-31T01:02:38.897Z,0.50
2023-03-31T01:03:42.944Z,0.50
2023-03-31T01:04:47.189Z,1.00
2023-03-31T01:05:51.299Z,0.25
2023-03-31T01:06:55.503Z,0.50
2023-03-31T01:07:59.491Z,1.00
2023-03-31T01:09:03.596Z,0.00
2023-03-31T01:10:07.803Z,0.00
2023-03-31T01:11:12.028Z,0.00
2023-03-31T01:12:16.125Z,0.50
2023-03-31T01:13:20.356Z,0.50
2023-03-31T01:14:24.428Z,1.50
2023-03-31T01:15:28.624Z,1.50
2023-03-31T01:16:32.851Z,0.25
2023-03-31T01:17:37.133Z,0.00
2023-03-31T01:18:41.596Z,0.50
2023-03-31T01:19:47.225Z,1.00
2023-03-31T01:20:51.307Z,0.25
2023-03-31T01:21:55.607Z,0.00
2023-03-31T01:22:59.191Z,1.75
2023-03-31T01:24:03.301Z,2.50
2023-03-31T01:25:07.520Z,1.00
2023-03-31T01:26:11.720Z,0.75
2023-03-31T01:27:15.929Z,0.00
2023-03-31T01:28:20.020Z,0.00
2023-03-31T01:29:24.243Z,0.50
2023-03-31T01:30:28.635Z,0.50
2023-03-31T01:31:32.820Z,0.00
2023-03-31T01:32:37.121Z,0.75
2023-03-31T01:33:41.053Z,0.25
2023-03-31T01:34:45.125Z,0.50
2023-03-31T01:35:49.024Z,0.00
2023-03-31T01:36:52.763Z,0.50
2023-03-31T01:37:56.654Z,1.00
2023-03-31T01:39:00.647Z,1.00
2023-03-31T01:40:04.418Z,0.25
2023-03-31T01:41:08.171Z,0.50
2023-03-31T01:42:11.899Z,0.50
2023-03-31T01:43:15.629Z,1.50
2023-03-31T01:44:19.317Z,1.50
2023-03-31T01:45:23.422Z,1.00
2023-03-31T01:46:27.282Z,1.00
2023-03-31T01:47:31.265Z,1.25
2023-03-31T01:48:35.025Z,0.75
2023-03-31T01:49:38.813Z,0.00
2023-03-31T01:50:42.811Z,0.50
2023-03-31T01:51:46.823Z,1.00
2023-03-31T01:52:50.717Z,1.50
2023-03-31T01:53:54.517Z,1.50
2023-03-31T01:54:58.314Z,1.00
2023-03-31T01:56:02.094Z,1.25
2023-03-31T01:57:05.836Z,0.50
2023-03-31T01:58:09.612Z,0.50
2023-03-31T01:59:13.307Z,0.75
2023-03-31T02:00:17.123Z,0.50
2023-03-31T02:01:20.896Z,0.75
2023-03-31T02:02:24.845Z,0.50
2023-03-31T02:03:28.964Z,0.50
2023-03-31T02:04:33.007Z,0.25
2023-03-31T02:05:37.111Z,1.00
2023-03-31T02:06:41.190Z,1.00
2023-03-31T02:07:45.296Z,0.50
2023-03-31T02:08:49.709Z,0.50
2023-03-31T02:09:53.710Z,1.00
2023-03-31T02:10:58.016Z,1.00
2023-03-31T02:12:02.128Z,1.00
2023-03-31T02:13:06.323Z,0.25
2023-03-31T02:14:10.754Z,1.00
2023-03-31T02:15:14.550Z,1.25
2023-03-31T02:16:18.653Z,0.25
2023-03-31T02:17:22.872Z,0.00
2023-03-31T02:18:27.064Z,1.00
2023-03-31T02:19:31.283Z,1.00
2023-03-31T02:20:35.251Z,1.00
2023-03-31T02:21:39.485Z,1.00
2023-03-31T02:22:43.666Z,0.75
2023-03-31T02:23:47.247Z,1.00
2023-03-31T02:24:51.261Z,0.25
2023-03-31T02:25:55.648Z,1.00
2023-03-31T02:26:59.777Z,0.75
2023-03-31T02:28:04.104Z,1.00
2023-03-31T02:29:08.231Z,0.50
2023-03-31T02:30:12.392Z,0.00
2023-03-31T02:31:16.972Z,0.50
2023-03-31T02:32:21.012Z,0.25
2023-03-31T02:33:25.215Z,0.75
2023-03-31T02:34:29.444Z,0.50
2023-03-31T02:35:33.232Z,0.00
2023-03-31T02:36:37.214Z,0.50
2023-03-31T02:37:41.014Z,1.50
2023-03-31T02:38:45.109Z,1.25
2023-03-31T02:39:49.112Z,0.00
2023-03-31T02:40:53.118Z,0.50
2023-03-31T02:41:56.810Z,0.50
2023-03-31T02:43:00.774Z,0.50
2023-03-31T02:44:04.609Z,0.50
2023-03-31T02:45:08.512Z,0.50
2023-03-31T02:46:12.400Z,0.50
2023-03-31T02:47:16.220Z,1.00
2023-03-31T02:48:19.895Z,1.00
2023-03-31T02:49:23.597Z,1.00
2023-03-31T02:50:27.698Z,1.00
2023-03-31T02:51:31.800Z,0.25
2023-03-31T02:52:36.011Z,1.00
2023-03-31T02:53:40.210Z,0.00
2023-03-31T02:54:44.314Z,0.75
2023-03-31T02:55:48.528Z,0.25
2023-03-31T02:56:52.459Z,1.00
2023-03-31T02:57:56.656Z,1.00
2023-03-31T02:59:01.039Z,1.00
2023-03-31T03:00:05.034Z,0.50
2023-03-31T03:01:09.069Z,0.50
2023-03-31T03:02:13.264Z,0.00
2023-03-31T03:03:17.580Z,0.50
2023-03-31T03:04:21.655Z,0.75
2023-03-31T03:05:25.691Z,0.00
2023-03-31T03:06:29.575Z,0.00
2023-03-31T03:07:33.453Z,0.25
2023-03-31T03:08:37.153Z,0.25
2023-03-31T03:09:40.968Z,0.50
2023-03-31T03:10:45.049Z,0.50
2023-03-31T03:11:49.358Z,0.25
2023-03-31T03:12:54.671Z,0.00
2023-03-31T03:13:58.284Z,0.50
2023-03-31T03:15:02.098Z,0.75
2023-03-31T03:16:06.159Z,0.50
2023-03-31T03:17:10.147Z,0.50
2023-03-31T03:18:13.881Z,0.00
2023-03-31T03:19:17.884Z,0.25
2023-03-31T03:20:21.797Z,0.00
2023-03-31T03:21:25.796Z,1.00
2023-03-31T03:22:29.690Z,0.75
2023-03-31T03:23:33.573Z,1.00
2023-03-31T03:24:37.380Z,0.50
2023-03-31T03:25:41.577Z,0.50
2023-03-31T03:26:45.577Z,0.25
2023-03-31T03:27:49.789Z,1.00
2023-03-31T03:28:54.094Z,0.75
2023-03-31T03:29:58.193Z,0.25
2023-03-31T03:31:02.766Z,0.00
2023-03-31T03:32:06.917Z,0.50
2023-03-31T03:33:10.873Z,1.00
2023-03-31T03:34:14.918Z,0.00
2023-03-31T03:35:18.814Z,0.00
2023-03-31T03:36:22.728Z,0.50
2023-03-31T03:37:26.825Z,1.00
2023-03-31T03:38:30.821Z,0.50
2023-03-31T03:39:34.506Z,0.00
2023-03-31T03:40:38.431Z,0.50
2023-03-31T03:41:42.203Z,0.50
2023-03-31T03:42:46.216Z,0.25
2023-03-31T03:43:50.212Z,0.00
2023-03-31T03:44:54.104Z,0.50
2023-03-31T03:45:58.313Z,0.00
2023-03-31T03:47:02.622Z,0.00
2023-03-31T03:48:07.073Z,0.00
2023-03-31T03:49:11.250Z,0.00
2023-03-31T03:50:16.203Z,0.50
2023-03-31T03:51:20.674Z,0.50
2023-03-31T03:52:24.756Z,0.25
2023-03-31T03:53:28.885Z,0.00
2023-03-31T03:54:32.983Z,0.50
2023-03-31T03:55:37.182Z,0.50
2023-03-31T03:56:41.613Z,0.00
2023-03-31T03:57:45.700Z,0.50
2023-03-31T03:58:50.003Z,0.00
2023-03-31T03:59:54.529Z,0.50
2023-03-31T04:00:58.743Z,0.50
2023-03-31T04:02:02.963Z,0.00
2023-03-31T04:03:07.185Z,0.00
2023-03-31T04:04:11.548Z,0.00
2023-03-31T04:05:16.126Z,0.00
2023-03-31T04:06:20.368Z,0.00
2023-03-31T04:07:24.264Z,0.00
2023-03-31T04:08:28.268Z,0.00
2023-03-31T04:09:32.301Z,0.00
2023-03-31T04:10:36.782Z,0.50
2023-03-31T04:11:40.809Z,0.50
2023-03-31T04:12:44.895Z,0.00
2023-03-31T04:13:49.297Z,0.00
2023-03-31T04:14:53.397Z,0.00
2023-03-31T04:15:57.632Z,0.00
2023-03-31T04:17:01.571Z,0.50
2023-03-31T04:18:05.756Z,0.00
2023-03-31T04:19:09.811Z,0.00
2023-03-31T04:20:13.916Z,0.00
2023-03-31T04:21:18.119Z,0.00
2023-03-31T04:22:22.125Z,0.00
2023-03-31T04:23:26.227Z,0.00
2023-03-31T04:24:30.184Z,0.00
2023-03-31T04:25:34.181Z,0.00
2023-03-31T04:26:38.029Z,0.00
2023-03-31T04:27:41.917Z,0.50
2023-03-31T04:28:45.933Z,0.00
2023-03-31T04:29:49.927Z,0.00
2023-03-31T04:30:53.620Z,0.00
2023-03-31T04:31:57.543Z,0.25
2023-03-31T04:33:01.823Z,0.50
2023-03-31T04:34:05.522Z,0.00
2023-03-31T04:35:09.314Z,0.00
2023-03-31T04:36:13.268Z,0.00
2023-03-31T04:37:17.341Z,0.00
2023-03-31T04:38:21.527Z,0.50
2023-03-31T04:39:25.424Z,0.25
2023-03-31T04:40:29.318Z,0.00
2023-03-31T04:41:33.009Z,0.00
2023-03-31T04:42:37.014Z,0.00
2023-03-31T04:43:41.025Z,0.00
2023-03-31T04:44:45.220Z,0.00
2023-03-31T04:45:49.153Z,0.00
2023-03-31T04:46:52.969Z,0.00
2023-03-31T04:47:57.116Z,0.00
2023-03-31T04:49:01.223Z,0.00
2023-03-31T04:50:05.533Z,0.00
2023-03-31T04:51:09.541Z,0.00
2023-03-31T04:52:13.640Z,0.00
2023-03-31T04:53:17.513Z,0.00
2023-03-31T04:54:21.637Z,0.00
2023-03-31T04:55:30.150Z,0.00
2023-03-31T04:56:34.151Z,0.00
2023-03-31T04:57:38.360Z,0.00
2023-03-31T04:58:42.458Z,0.00
2023-03-31T04:59:46.677Z,0.00
2023-03-31T05:00:50.464Z,0.00
2023-03-31T05:01:54.580Z,0.00
2023-03-31T05:02:58.748Z,0.00
2023-03-31T05:04:02.776Z,0.00
2023-03-31T05:05:06.874Z,0.00
2023-03-31T05:06:11.342Z,0.00
2023-03-31T05:07:15.410Z,0.50
2023-03-31T05:08:19.695Z,0.00
2023-03-31T05:09:23.608Z,0.00
2023-03-31T05:10:27.709Z,0.00
2023-03-31T05:11:31.808Z,0.00
2023-03-31T05:12:35.876Z,0.50
2023-03-31T05:13:40.220Z,0.50
2023-03-31T05:14:44.530Z,0.50
2023-03-31T05:15:48.632Z,0.50
2023-03-31T05:16:52.846Z,0.00
2023-03-31T05:17:56.906Z,0.00
2023-03-31T05:19:00.980Z,0.00
2023-03-31T05:20:05.156Z,0.25
2023-03-31T05:21:09.471Z,0.00
2023-03-31T05:22:13.764Z,0.00
2023-03-31T05:23:18.284Z,0.00
2023-03-31T05:24:22.383Z,0.00
2023-03-31T05:25:26.606Z,0.00
2023-03-31T05:26:30.588Z,0.00
2023-03-31T05:27:35.432Z,0.00
2023-03-31T05:28:39.311Z,0.00
2023-03-31T05:29:43.516Z,0.00
2023-03-31T05:30:47.413Z,0.00
2023-03-31T05:31:51.277Z,0.00
2023-03-31T05:32:55.134Z,0.00
2023-03-31T05:33:58.903Z,0.00
2023-03-31T05:35:03.018Z,0.00
2023-03-31T05:36:07.088Z,0.00
2023-03-31T05:37:11.020Z,0.00
2023-03-31T05:38:14.912Z,0.00
2023-03-31T05:39:18.925Z,0.00
2023-03-31T05:40:23.017Z,0.00
2023-03-31T05:41:27.010Z,0.00
2023-03-31T05:42:31.118Z,0.00
2023-03-31T05:43:35.675Z,0.00
2023-03-31T05:44:39.448Z,0.00
2023-03-31T05:45:43.334Z,0.00
2023-03-31T05:46:47.277Z,0.00
2023-03-31T05:47:51.262Z,0.00
2023-03-31T05:48:55.348Z,0.00
2023-03-31T05:49:59.236Z,0.00
2023-03-31T05:51:03.041Z,0.00
2023-03-31T05:52:07.053Z,0.00
2023-03-31T05:53:10.927Z,0.00
2023-03-31T05:54:14.836Z,0.00
2023-03-31T05:55:19.048Z,0.00
2023-03-31T05:56:22.928Z,0.00
2023-03-31T05:57:28.711Z,0.00
2023-03-31T05:58:32.981Z,0.00
2023-03-31T05:59:37.187Z,0.00
2023-03-31T06:00:41.593Z,0.00
2023-03-31T06:01:45.876Z,0.00
2023-03-31T06:02:50.215Z,0.00
2023-03-31T06:03:54.466Z,0.00
2023-03-31T06:04:58.508Z,0.00
2023-03-31T06:06:02.633Z,0.00
2023-03-31T06:07:06.724Z,0.00
2023-03-31T06:08:10.936Z,0.00
2023-03-31T06:09:14.851Z,0.00
2023-03-31T06:10:18.935Z,0.00
2023-03-31T06:11:23.454Z,0.00
2023-03-31T06:12:27.657Z,0.00
2023-03-31T06:13:31.965Z,0.00
2023-03-31T06:14:35.966Z,0.00
2023-03-31T06:15:40.125Z,0.00
2023-03-31T06:16:44.288Z,0.00
2023-03-31T06:17:48.395Z,0.00
2023-03-31T06:18:52.488Z,0.00
2023-03-31T06:19:56.484Z,0.00
2023-03-31T06:21:00.892Z,0.00
2023-03-31T06:22:05.093Z,0.00
2023-03-31T06:23:09.507Z,0.00
2023-03-31T06:24:13.713Z,0.00
2023-03-31T06:25:17.862Z,0.00
2023-03-31T06:26:22.327Z,0.00
2023-03-31T06:27:26.535Z,0.00
2023-03-31T06:28:30.338Z,0.00
2023-03-31T06:29:34.828Z,0.00
2023-03-31T06:30:38.945Z,0.00
2023-03-31T06:31:42.922Z,0.00
2023-03-31T06:32:47.094Z,0.00
2023-03-31T06:33:50.952Z,0.00
2023-03-31T06:34:54.952Z,0.00
2023-03-31T06:35:58.809Z,0.00
2023-03-31T06:37:02.578Z,0.00
2023-03-31T06:38:06.354Z,0.00
2023-03-31T06:39:10.248Z,0.00
2023-03-31T06:40:14.055Z,0.00
2023-03-31T06:41:18.039Z,0.00
2023-03-31T06:42:21.940Z,0.00
2023-03-31T06:43:27.177Z,0.00
2023-03-31T06:44:31.605Z,0.00
2023-03-31T06:45:35.771Z,0.00
2023-03-31T06:46:40.055Z,0.00
2023-03-31T06:47:44.240Z,0.00
2023-03-31T06:48:48.216Z,0.00
2023-03-31T06:49:52.404Z,0.00
2023-03-31T06:50:56.729Z,0.00
2023-03-31T06:52:00.920Z,0.00
2023-03-31T06:53:05.094Z,0.00
2023-03-31T06:54:09.023Z,0.00
2023-03-31T06:55:13.441Z,0.00
2023-03-31T06:56:17.756Z,0.00
2023-03-31T06:57:22.019Z,0.00
2023-03-31T06:58:26.834Z,0.00
2023-03-31T06:59:30.980Z,0.00
2023-03-31T07:00:34.772Z,0.00
2023-03-31T07:01:38.889Z,0.00
2023-03-31T07:02:43.030Z,0.00
2023-03-31T07:03:46.897Z,0.00
2023-03-31T07:04:50.887Z,0.00
2023-03-31T07:05:54.881Z,0.00
2023-03-31T07:06:59.081Z,0.00
2023-03-31T07:08:02.818Z,0.00
2023-03-31T07:09:06.997Z,0.00
2023-03-31T07:10:10.894Z,0.00
2023-03-31T07:11:14.785Z,0.00
2023-03-31T07:12:18.678Z,0.00
2023-03-31T07:13:22.474Z,0.00
2023-03-31T07:14:26.678Z,0.00
2023-03-31T07:15:30.676Z,0.00
2023-03-31T07:16:34.619Z,0.25
2023-03-31T07:17:38.500Z,0.25
2023-03-31T07:18:42.312Z,0.00
2023-03-31T07:19:46.165Z,0.00
2023-03-31T07:20:50.110Z,0.00
2023-03-31T07:21:53.968Z,0.00
2023-03-31T07:22:57.679Z,0.00
2023-03-31T07:24:01.577Z,0.00
2023-03-31T07:25:05.462Z,0.00
2023-03-31T07:26:09.478Z,0.00
2023-03-31T07:27:13.673Z,0.00
2023-03-31T07:28:17.810Z,0.00
2023-03-31T07:29:21.665Z,0.50
2023-03-31T07:30:26.093Z,1.00
2023-03-31T07:31:30.332Z,1.00
2023-03-31T07:32:34.553Z,0.00
2023-03-31T07:33:38.895Z,0.00
2023-03-31T07:34:43.012Z,0.00
2023-03-31T07:35:51.689Z,0.50
2023-03-31T07:36:52.487Z,1.00
2023-03-31T07:37:56.646Z,1.50
2023-03-31T07:39:00.959Z,2.00
2023-03-31T07:40:10.084Z,2.75
2023-03-31T07:41:14.785Z,4.25
2023-03-31T07:42:18.811Z,2.50
2023-03-31T07:43:23.113Z,1.00
2023-03-31T07:44:27.313Z,0.25
2023-03-31T07:45:31.539Z,0.00
2023-03-31T07:46:36.347Z,0.00
2023-03-31T07:47:40.800Z,0.00
2023-03-31T07:48:44.752Z,0.00
2023-03-31T07:49:48.769Z,0.00
2023-03-31T07:50:52.856Z,0.00
2023-03-31T07:51:57.570Z,0.00
2023-03-31T07:53:02.188Z,0.00
2023-03-31T07:54:06.193Z,0.00
2023-03-31T07:55:10.427Z,0.00
2023-03-31T07:56:14.521Z,0.00
2023-03-31T07:57:19.386Z,0.00
2023-03-31T07:58:24.131Z,0.00
2023-03-31T07:59:28.075Z,0.00
2023-03-31T08:00:34.191Z,0.00
2023-03-31T08:01:38.649Z,0.00
2023-03-31T08:02:43.110Z,0.00
2023-03-31T08:03:47.405Z,0.00
2023-03-31T08:04:51.327Z,0.00
2023-03-31T08:05:55.342Z,0.00
2023-03-31T08:06:59.882Z,0.00
2023-03-31T08:08:05.072Z,0.00
2023-03-31T08:09:09.580Z,0.00
2023-03-31T08:10:14.285Z,0.00
2023-03-31T08:11:18.175Z,0.00
2023-03-31T08:12:22.249Z,2.00
2023-03-31T08:13:26.010Z,1.75
2023-03-31T08:14:38.281Z,0.00
2023-03-31T08:15:34.831Z,0.00
2023-03-31T08:16:38.980Z,0.00
2023-03-31T08:17:42.856Z,0.00
2023-03-31T08:18:47.239Z,0.00
2023-03-31T08:19:51.035Z,0.00
2023-03-31T08:20:55.164Z,0.00
2023-03-31T08:22:00.466Z,1.00
2023-03-31T08:23:03.946Z,0.00
2023-03-31T08:24:08.374Z,0.25
2023-03-31T08:25:12.574Z,0.00
2023-03-31T08:26:17.914Z,0.50
2023-03-31T08:27:21.810Z,0.50
2023-03-31T08:28:25.905Z,0.50
2023-03-31T08:29:30.022Z,2.50
2023-03-31T08:30:33.801Z,1.00
2023-03-31T08:31:37.631Z,0.25
2023-03-31T08:32:41.544Z,0.50
2023-03-31T08:33:45.893Z,0.00
2023-03-31T08:34:49.908Z,0.00
2023-03-31T08:35:55.175Z,0.50
2023-03-31T08:36:59.235Z,1.00
2023-03-31T08:38:03.736Z,0.50
2023-03-31T08:39:07.968Z,1.00
2023-03-31T08:40:14.011Z,1.00
2023-03-31T08:41:18.103Z,0.50
2023-03-31T08:42:22.336Z,0.75
2023-03-31T08:43:26.385Z,0.50
2023-03-31T08:44:30.444Z,1.00
2023-03-31T08:45:35.241Z,1.00
2023-03-31T08:46:39.380Z,0.25
2023-03-31T08:47:43.645Z,0.25
2023-03-31T08:48:47.756Z,1.00
2023-03-31T08:49:51.799Z,0.50
2023-03-31T08:50:55.856Z,1.00
2023-03-31T08:52:00.177Z,1.00
2023-03-31T08:53:04.425Z,1.00
2023-03-31T08:54:09.187Z,0.50
2023-03-31T08:55:13.811Z,1.00
2023-03-31T08:56:19.039Z,0.50
2023-03-31T08:57:24.081Z,0.75
2023-03-31T08:58:28.791Z,0.75
2023-03-31T08:59:33.123Z,0.00
2023-03-31T09:00:37.226Z,1.00
2023-03-31T09:01:54.575Z,1.00
2023-03-31T09:02:46.589Z,1.00
2023-03-31T09:03:51.482Z,0.25
2023-03-31T09:04:55.956Z,0.50
2023-03-31T09:06:12.983Z,1.00
2023-03-31T09:07:05.943Z,0.50
2023-03-31T09:08:10.517Z,1.00
2023-03-31T09:09:14.635Z,1.00
2023-03-31T09:10:18.852Z,4.50
2023-03-31T09:11:23.753Z,7.25
2023-03-31T09:12:29.077Z,5.25
2023-03-31T09:13:33.387Z,2.50
2023-03-31T09:14:38.220Z,1.00
2023-03-31T09:15:42.527Z,1.00
2023-03-31T09:16:46.574Z,0.50
2023-03-31T09:17:51.108Z,0.25
2023-03-31T09:18:55.433Z,0.50
2023-03-31T09:19:59.458Z,0.00
2023-03-31T09:21:04.057Z,0.25
2023-03-31T09:22:08.761Z,0.00
2023-03-31T09:23:13.196Z,1.00
2023-03-31T09:24:17.433Z,1.50
2023-03-31T09:25:21.349Z,2.50
2023-03-31T09:26:25.120Z,1.00
2023-03-31T09:27:28.879Z,1.50
2023-03-31T09:28:32.900Z,2.00
2023-03-31T09:29:37.511Z,0.00
2023-03-31T09:30:41.649Z,0.25
2023-03-31T09:31:45.884Z,0.50
2023-03-31T09:32:50.227Z,1.00
2023-03-31T09:33:54.132Z,0.00
2023-03-31T09:34:58.550Z,0.00
2023-03-31T09:36:02.519Z,0.00
2023-03-31T09:37:06.346Z,0.50
2023-03-31T09:38:10.533Z,0.50
2023-03-31T09:39:15.060Z,0.00
2023-03-31T09:40:19.648Z,0.00
2023-03-31T09:41:23.978Z,0.50
2023-03-31T09:42:28.390Z,0.00
2023-03-31T09:43:32.356Z,0.00
2023-03-31T09:44:36.301Z,0.50
2023-03-31T09:45:40.009Z,0.00
2023-03-31T09:46:44.985Z,0.00
2023-03-31T09:47:49.259Z,0.00
2023-03-31T09:48:53.275Z,0.00
2023-03-31T09:49:57.820Z,0.00
2023-03-31T09:51:02.337Z,0.00
2023-03-31T09:52:06.476Z,0.00
2023-03-31T09:53:10.366Z,0.00
2023-03-31T09:54:14.351Z,0.00
2023-03-31T09:55:28.453Z,0.00
2023-03-31T09:56:23.886Z,0.00
2023-03-31T09:57:29.926Z,0.00
2023-03-31T09:58:33.537Z,0.00
2023-03-31T09:59:37.452Z,0.00
2023-03-31T10:00:41.537Z,0.00
2023-03-31T10:01:46.022Z,0.00
2023-03-31T10:02:50.645Z,0.00
2023-03-31T10:03:54.937Z,0.00
2023-03-31T10:04:58.970Z,0.00
2023-03-31T10:06:03.668Z,0.00
2023-03-31T10:07:07.594Z,0.00
2023-03-31T10:08:11.947Z,0.00
2023-03-31T10:09:16.101Z,0.00
2023-03-31T10:10:20.007Z,1.00
2023-03-31T10:11:24.941Z,0.50
2023-03-31T10:12:29.349Z,1.00
2023-03-31T10:13:33.962Z,1.00
2023-03-31T10:14:38.059Z,0.50
2023-03-31T10:15:42.424Z,2.50
2023-03-31T10:16:46.682Z,4.25
2023-03-31T10:18:56.797Z,3.50
2023-03-31T10:20:00.834Z,2.50
2023-03-31T10:21:05.422Z,2.50
2023-03-31T10:22:09.667Z,1.50
2023-03-31T10:23:13.858Z,1.50
2023-03-31T10:24:18.581Z,0.25
2023-03-31T10:25:23.280Z,0.25
2023-03-31T10:26:27.399Z,0.50
2023-03-31T10:27:31.400Z,0.00
2023-03-31T10:28:35.324Z,0.50
2023-03-31T10:29:39.446Z,0.25
2023-03-31T10:30:46.780Z,0.00
2023-03-31T10:31:51.934Z,1.00
2023-03-31T10:32:55.964Z,1.00
2023-03-31T10:33:59.817Z,1.00
2023-03-31T10:35:03.723Z,1.00
2023-03-31T10:36:07.537Z,1.00
2023-03-31T10:37:11.636Z,1.00
2023-03-31T10:38:16.012Z,0.50
2023-03-31T10:39:19.936Z,0.00
2023-03-31T10:40:23.811Z,1.00
2023-03-31T10:41:27.649Z,1.00
2023-03-31T10:42:31.495Z,1.25
2023-03-31T10:43:35.822Z,0.50
2023-03-31T10:44:40.408Z,1.50
2023-03-31T10:45:44.848Z,1.33
2023-03-31T10:46:48.925Z,0.50
2023-03-31T10:47:53.580Z,0.50
2023-03-31T10:48:58.529Z,1.50
2023-03-31T10:50:02.493Z,1.50
2023-03-31T10:51:06.784Z,1.00
2023-03-31T10:52:11.195Z,1.00
2023-03-31T10:53:15.627Z,1.00
2023-03-31T10:54:19.907Z,1.00
2023-03-31T10:55:24.233Z,1.75
2023-03-31T10:56:28.539Z,1.25
2023-03-31T10:57:32.666Z,1.75
2023-03-31T10:58:36.432Z,1.00
2023-03-31T10:59:40.458Z,1.50
2023-03-31T11:00:44.749Z,2.00
2023-03-31T11:01:48.866Z,1.25
2023-03-31T11:02:53.043Z,2.00
2023-03-31T11:03:57.739Z,1.75
2023-03-31T11:05:02.038Z,2.00
2023-03-31T11:06:05.777Z,2.00
2023-03-31T11:07:09.715Z,2.00
2023-03-31T11:08:13.802Z,1.25
2023-03-31T11:09:17.674Z,1.50
2023-03-31T11:10:21.976Z,0.50
2023-03-31T11:11:26.165Z,2.00
2023-03-31T11:12:30.577Z,1.50
2023-03-31T11:13:34.819Z,1.50
2023-03-31T11:14:39.306Z,2.00
2023-03-31T11:15:43.938Z,2.50
2023-03-31T11:16:48.286Z,2.50
2023-03-31T11:17:52.488Z,2.00
2023-03-31T11:18:56.737Z,2.00
2023-03-31T11:20:00.903Z,1.50
2023-03-31T11:21:05.612Z,1.50
2023-03-31T11:22:11.395Z,1.50
2023-03-31T11:23:15.534Z,1.75
2023-03-31T11:24:20.371Z,2.00
2023-03-31T11:25:24.556Z,2.00
2023-03-31T11:26:29.858Z,1.00
2023-03-31T11:27:33.908Z,1.50
2023-03-31T11:28:37.718Z,0.75
2023-03-31T11:29:41.685Z,1.50
2023-03-31T11:30:45.884Z,1.50
2023-03-31T11:31:50.095Z,1.00
2023-03-31T11:32:54.040Z,1.50
2023-03-31T11:33:57.784Z,1.75
2023-03-31T11:35:01.787Z,2.00
2023-03-31T11:36:05.743Z,1.75
2023-03-31T11:37:09.994Z,2.00
2023-03-31T11:38:13.930Z,1.50
2023-03-31T11:39:18.309Z,1.50
2023-03-31T11:40:22.616Z,2.00
2023-03-31T11:41:27.135Z,1.50
2023-03-31T11:42:31.626Z,2.00
2023-03-31T11:43:36.032Z,2.00
2023-03-31T11:44:40.354Z,2.00
2023-03-31T11:45:44.635Z,2.00
2023-03-31T11:46:48.769Z,2.00
2023-03-31T11:47:53.054Z,2.00
2023-03-31T11:48:57.265Z,1.00
2023-03-31T11:50:01.787Z,1.50
2023-03-31T11:51:05.991Z,2.00
2023-03-31T11:52:10.302Z,2.00
2023-03-31T11:53:14.676Z,1.25
2023-03-31T11:54:19.935Z,2.00
2023-03-31T11:55:24.236Z,2.00
2023-03-31T11:56:28.566Z,2.00
2023-03-31T11:57:32.825Z,1.50
2023-03-31T11:58:37.474Z,2.00
2023-03-31T11:59:42.092Z,1.25
2023-03-31T12:00:46.606Z,1.25
2023-03-31T12:01:50.730Z,0.75
2023-03-31T12:02:54.537Z,1.25
2023-03-31T12:03:58.973Z,0.25
2023-03-31T12:05:03.734Z,1.50
2023-03-31T12:06:07.890Z,2.00
2023-03-31T12:07:12.160Z,1.50
2023-03-31T12:08:16.428Z,1.75
2023-03-31T12:09:20.764Z,2.00
2023-03-31T12:10:24.434Z,1.50
2023-03-31T12:11:29.181Z,2.50
2023-03-31T12:12:34.511Z,2.50
2023-03-31T12:13:38.613Z,1.25
2023-03-31T12:14:42.911Z,2.00
2023-03-31T12:15:47.168Z,1.50
2023-03-31T12:16:51.445Z,2.00
2023-03-31T12:17:55.675Z,1.50
2023-03-31T12:19:00.053Z,1.00
2023-03-31T12:20:03.762Z,1.50
2023-03-31T12:21:07.484Z,2.00
2023-03-31T12:22:11.371Z,2.00
2023-03-31T12:23:15.253Z,1.50
2023-03-31T12:24:19.644Z,2.00
2023-03-31T12:25:23.486Z,1.00
2023-03-31T12:26:27.671Z,1.50
2023-03-31T12:27:31.751Z,2.00
2023-03-31T12:28:35.640Z,1.25
2023-03-31T12:29:39.877Z,2.50
2023-03-31T12:30:43.849Z,2.00
2023-03-31T12:31:48.024Z,2.00
2023-03-31T12:32:52.089Z,2.25
2023-03-31T12:33:56.371Z,2.00
2023-03-31T12:35:00.370Z,2.00
2023-03-31T12:36:05.147Z,1.25
2023-03-31T12:37:09.631Z,1.50
2023-03-31T12:38:13.910Z,1.75
2023-03-31T12:39:17.918Z,1.50
2023-03-31T12:40:22.128Z,1.75
2023-03-31T12:41:26.328Z,2.50
2023-03-31T12:42:30.838Z,2.50
2023-03-31T12:43:34.833Z,2.00
2023-03-31T12:44:39.048Z,2.00
2023-03-31T12:45:43.458Z,1.75
2023-03-31T12:46:47.906Z,2.00
2023-03-31T12:47:52.644Z,2.00
2023-03-31T12:48:57.101Z,1.00
2023-03-31T12:50:01.536Z,1.75
2023-03-31T12:51:06.126Z,2.50
2023-03-31T12:52:10.636Z,2.50
2023-03-31T12:53:14.840Z,2.00
2023-03-31T12:54:18.729Z,1.50
2023-03-31T12:55:22.951Z,1.75
2023-03-31T12:56:27.153Z,1.50
2023-03-31T12:57:31.563Z,2.25
2023-03-31T12:58:35.849Z,2.00
2023-03-31T12:59:39.949Z,2.00
2023-03-31T13:00:44.105Z,3.00
2023-03-31T13:01:48.514Z,2.50
2023-03-31T13:02:53.019Z,2.25
2023-03-31T13:03:57.315Z,1.00
2023-03-31T13:05:01.442Z,2.00
2023-03-31T13:06:05.541Z,2.00
2023-03-31T13:07:17.489Z,3.00
2023-03-31T13:08:14.911Z,2.50
2023-03-31T13:09:19.162Z,2.00
2023-03-31T13:10:23.400Z,2.00
2023-03-31T13:11:27.577Z,2.50
2023-03-31T13:12:32.293Z,2.25
2023-03-31T13:13:36.408Z,1.50
2023-03-31T13:14:40.719Z,1.50
2023-03-31T13:15:44.906Z,2.25
2023-03-31T13:16:49.244Z,2.50
2023-03-31T13:17:53.626Z,2.00
2023-03-31T13:18:58.037Z,1.50
2023-03-31T13:20:02.429Z,2.00
2023-03-31T13:21:07.775Z,2.25
2023-03-31T13:22:11.980Z,3.00
2023-03-31T13:23:16.226Z,2.50
2023-03-31T13:24:20.494Z,3.00
2023-03-31T13:25:24.708Z,2.25
2023-03-31T13:26:29.132Z,2.00
2023-03-31T13:27:33.680Z,1.50
2023-03-31T13:28:37.832Z,1.50
2023-03-31T13:29:42.231Z,1.75
2023-03-31T13:30:46.444Z,1.50
2023-03-31T13:31:50.963Z,1.50
2023-03-31T13:32:55.324Z,2.00
2023-03-31T13:33:59.580Z,2.00
2023-03-31T13:35:03.450Z,1.25
2023-03-31T13:36:07.802Z,1.25
2023-03-31T13:37:12.294Z,1.00
2023-03-31T13:38:16.704Z,1.25
2023-03-31T13:39:20.925Z,1.75
2023-03-31T13:40:25.014Z,2.00
2023-03-31T13:41:29.330Z,1.50
2023-03-31T13:42:33.428Z,1.50
2023-03-31T13:43:37.833Z,1.50
2023-03-31T13:44:41.750Z,1.75
2023-03-31T13:45:45.776Z,2.00
2023-03-31T13:46:50.098Z,1.25
2023-03-31T13:47:54.102Z,1.50
2023-03-31T13:48:58.152Z,1.00
2023-03-31T13:50:02.257Z,1.00
2023-03-31T13:51:06.479Z,1.75
2023-03-31T13:52:10.771Z,1.00
2023-03-31T13:53:14.835Z,1.00
2023-03-31T13:54:18.873Z,2.50
2023-03-31T13:55:23.228Z,2.50
2023-03-31T13:56:27.591Z,1.50
2023-03-31T13:57:32.006Z,2.00
2023-03-31T13:58:36.359Z,2.50
2023-03-31T13:59:40.826Z,2.50
2023-03-31T14:00:45.133Z,1.75
2023-03-31T14:01:49.227Z,2.00
2023-03-31T14:02:53.708Z,2.00
2023-03-31T14:03:58.349Z,1.25
2023-03-31T14:05:02.874Z,1.75
2023-03-31T14:07:24.502Z,2.00
2023-03-31T14:08:28.802Z,1.75
2023-03-31T14:09:33.119Z,1.00
2023-03-31T14:10:37.449Z,2.00
2023-03-31T14:11:41.642Z,2.00
2023-03-31T14:12:46.142Z,1.25
2023-03-31T14:13:50.350Z,1.50
2023-03-31T14:14:54.760Z,2.00
2023-03-31T14:15:59.214Z,2.00
2023-03-31T14:17:03.380Z,2.00